Terminal Aerodrome Forecast
Issued by NWS

Home | Current Version | Previous Version | Graphics & Text | Print | Product List | Glossary On
Versions: 1 2 3 4 5 6 7 8 9 10 11 12 13 14 15 16 17 18 19 20 21 22 23 24 25 26 27 28 29 30 31 32 33 34 35 36 37 38 39 40 41 42 43 44 45
944
FTUS43 KGRB 241728
TAFATW
TAF
KATW 241728Z 2418/2518 09009KT P6SM BKN025 BKN100
     FM242100 08010G17KT P6SM OVC090
     FM250100 10014G22KT 5SM -RASNPL BR OVC020
     FM250500 15014G25KT 2SM RA BR OVC005
     FM251000 24018G30KT 3SM -RASN OVC008
     FM251200 25021G35KT P6SM BKN020=

USA.gov is the U.S. government's official web portal to all federal, state and local government web resources and services.